CKV6 weather

Churchbridge Airport
Churchbridge, Saskatchewan, Canada

Public forecast

Using degrees Celsius for public forecast. Weather courtesy of forecast.io.

METAR (pilot weather report)

Closest report is Yorkton Municipal Airport, 28.5 nm (52.8 km) WNW. Retrieved 2019/09/23 19:00 UTC (13 minutes ago):

CYQV 231900Z AUTO 24015G22KT 9SM CLR 25/09 A2964 RMK SLP043 DENSITY ALT 3500FT

TAF (pilot weather forecast)

Closest forecast is Yorkton Municipal Airport, 28.5 nm (52.8 km) WNW. Retrieved 2019/09/23 18:54 UTC (19 minutes ago):

TAF CYQV 231751Z 2318/2406 20012G22KT P6SM SKC BECMG 2320/2322 29015G25KT FM232200 29015G25KT P6SM SCT060 SCT220 BECMG 2403/2405 27010KT BKN140 RMK FCST BASED ON AUTO OBS. NXT FCST BY 240000Z